Time;durP1;ratioP1;P1;durP2;ratioP2;P2;SDS_P1;SDS_P2;PMS_P1;PMS_P2;Temp;Humidity;BMP_temperature;BMP_pressure;BME280_temperature;BME280_humidity;BME280_pressure;Samples;Min_cycle;Max_cycle;Signal;HPM_P1;HPM_P2
2022/08/20 00:00:13;;;;;;;4.57;2.60;;;19.30;99.90;;;;;;5074413;28;20059;-75
2022/08/20 00:02:51;;;;;;;7.88;2.20;;;19.30;99.90;;;;;;5074433;28;20016;-76
2022/08/20 00:05:28;;;;;;;5.47;2.45;;;19.30;99.90;;;;;;5073988;28;20090;-78
2022/08/20 00:07:54;;;;;;;4.43;2.47;;;19.30;99.90;;;;;;5074062;28;20021;-77
2022/08/20 00:10:21;;;;;;;2.47;2.22;;;19.30;99.90;;;;;;5073973;28;20086;-76
2022/08/20 00:12:49;;;;;;;4.57;2.25;;;19.30;99.90;;;;;;5073979;28;20020;-74
2022/08/20 00:15:18;;;;;;;5.85;2.15;;;19.40;99.90;;;;;;5073824;28;20012;-76
2022/08/20 00:17:43;;;;;;;5.13;2.30;;;19.30;99.90;;;;;;5073816;28;20024;-78
2022/08/20 00:20:12;;;;;;;6.68;2.00;;;19.30;99.90;;;;;;5073747;28;20043;-75
2022/08/20 00:22:38;;;;;;;6.93;2.60;;;19.30;99.90;;;;;;5073964;28;20028;-76
2022/08/20 00:25:05;;;;;;;4.72;2.40;;;19.30;99.90;;;;;;5074084;28;20464;-75
2022/08/20 00:27:31;;;;;;;2.65;1.83;;;19.30;99.90;;;;;;5073727;28;20077;-74
2022/08/20 00:29:57;;;;;;;7.97;2.20;;;19.30;99.90;;;;;;5073808;28;20040;-76
2022/08/20 00:32:22;;;;;;;4.40;2.58;;;19.30;99.90;;;;;;5073927;28;20024;-77
2022/08/20 00:34:48;;;;;;;4.25;2.17;;;19.30;99.90;;;;;;5073598;28;20028;-76
2022/08/20 00:37:14;;;;;;;6.55;2.30;;;19.30;99.90;;;;;;5073795;28;20106;-77
2022/08/20 00:39:40;;;;;;;5.65;2.50;;;19.30;99.90;;;;;;5073578;28;20025;-78
2022/08/20 00:42:06;;;;;;;3.92;2.67;;;19.40;99.90;;;;;;5073635;28;20078;-76
2022/08/20 00:44:32;;;;;;;3.63;1.85;;;19.30;99.90;;;;;;5073710;28;20491;-75
2022/08/20 00:46:58;;;;;;;4.45;2.38;;;19.20;99.90;;;;;;5073378;28;20025;-76
2022/08/20 00:49:27;;;;;;;5.20;2.45;;;19.10;99.90;;;;;;5073350;28;20127;-77
2022/08/20 00:51:59;;;;;;;6.90;2.05;;;19.10;99.90;;;;;;5073378;28;20561;-78
2022/08/20 00:54:31;;;;;;;4.65;2.63;;;19.10;99.90;;;;;;5073437;28;20616;-76
2022/08/20 00:57:22;;;;;;;4.88;2.20;;;19.10;99.90;;;;;;5073408;28;20016;-76
2022/08/20 00:59:50;;;;;;;2.67;2.20;;;19.10;99.90;;;;;;5064893;28;20059;-77
2022/08/20 01:02:17;;;;;;;5.68;2.03;;;19.00;99.90;;;;;;5073273;28;20448;-74
2022/08/20 01:04:52;;;;;;;3.28;2.97;;;19.00;99.90;;;;;;5073349;28;20104;-75
2022/08/20 01:07:19;;;;;;;5.47;1.98;;;19.00;99.90;;;;;;5073138;28;20108;-75
2022/08/20 01:09:46;;;;;;;7.22;2.25;;;18.90;99.90;;;;;;5072823;28;20102;-75
2022/08/20 01:12:14;;;;;;;5.53;2.53;;;18.90;99.90;;;;;;5073192;28;20527;-75
2022/08/20 01:14:45;;;;;;;11.05;2.17;;;18.90;99.90;;;;;;5073228;28;20711;-74
2022/08/20 01:17:16;;;;;;;5.18;2.22;;;18.90;99.90;;;;;;5073049;28;20024;-74
2022/08/20 01:20:11;;;;;;;4.28;2.03;;;18.90;99.90;;;;;;5072996;28;20027;-74
2022/08/20 01:26:04;;;;;;;4.25;2.08;;;18.80;99.90;;;;;;5072998;28;20408;-74
2022/08/20 01:28:54;;;;;;;5.63;1.90;;;18.70;99.90;;;;;;5072901;28;20566;-74
2022/08/20 01:31:22;;;;;;;7.43;1.83;;;18.70;99.90;;;;;;5072808;28;20033;-75
2022/08/20 01:33:50;;;;;;;9.82;2.15;;;18.70;99.90;;;;;;5072992;28;20055;-74
2022/08/20 01:36:20;;;;;;;5.05;2.33;;;18.70;99.90;;;;;;5072817;28;20055;-73
2022/08/20 01:38:46;;;;;;;5.88;2.83;;;18.70;99.90;;;;;;5072763;28;20029;-73
2022/08/20 01:41:21;;;;;;;4.57;2.20;;;18.60;99.90;;;;;;5072594;28;20487;-74
2022/08/20 01:43:58;;;;;;;6.75;2.95;;;18.60;99.90;;;;;;5076343;28;20055;-74
2022/08/20 01:46:31;;;;;;;4.57;2.53;;;18.60;99.90;;;;;;5058983;28;20029;-75
2022/08/20 01:48:59;;;;;;;5.45;2.45;;;18.50;99.90;;;;;;5058703;28;20399;-74
2022/08/20 01:51:28;;;;;;;9.18;2.55;;;18.50;99.90;;;;;;5076777;28;20025;-74
2022/08/20 01:53:55;;;;;;;6.88;2.20;;;18.50;99.90;;;;;;5076385;28;20025;-77
2022/08/20 01:56:24;;;;;;;5.28;2.08;;;18.40;99.90;;;;;;5076374;28;20070;-74
2022/08/20 01:58:53;;;;;;;3.90;2.28;;;18.40;99.90;;;;;;5076465;28;20021;-76
2022/08/20 02:01:21;;;;;;;8.70;2.88;;;18.40;99.90;;;;;;5076364;28;20367;-73
2022/08/20 02:03:46;;;;;;;5.32;2.58;;;18.40;99.90;;;;;;5076596;28;20107;-74
2022/08/20 02:06:12;;;;;;;6.78;2.35;;;18.40;99.90;;;;;;5076285;28;20100;-75
2022/08/20 02:08:38;;;;;;;6.90;2.33;;;18.40;99.90;;;;;;5076387;28;20026;-76
2022/08/20 02:11:04;;;;;;;10.45;2.90;;;18.30;99.90;;;;;;5076151;28;20040;-74
2022/08/20 02:13:31;;;;;;;4.13;2.20;;;18.30;99.90;;;;;;5076108;28;20032;-75
2022/08/20 02:15:57;;;;;;;6.00;2.20;;;18.30;99.90;;;;;;5076289;28;20456;-75
2022/08/20 02:18:22;;;;;;;4.85;2.25;;;18.30;99.90;;;;;;5075762;28;20078;-75
2022/08/20 02:20:50;;;;;;;8.18;2.78;;;18.30;99.90;;;;;;5075302;28;20044;-73
2022/08/20 02:23:16;;;;;;;11.85;2.70;;;18.20;99.90;;;;;;5076219;28;20035;-74
2022/08/20 02:25:44;;;;;;;6.70;2.88;;;18.20;99.90;;;;;;5075825;28;20415;-73
2022/08/20 02:28:12;;;;;;;7.75;3.10;;;18.20;99.90;;;;;;5075679;28;20024;-74
2022/08/20 02:30:43;;;;;;;7.70;3.88;;;18.20;99.90;;;;;;5075687;28;20366;-74
2022/08/20 02:33:13;;;;;;;6.28;2.80;;;18.20;99.90;;;;;;5075792;28;20024;-75
2022/08/20 02:35:41;;;;;;;10.48;3.47;;;18.20;99.90;;;;;;5075476;28;20426;-74
2022/08/20 02:38:07;;;;;;;5.00;2.50;;;18.20;99.90;;;;;;5075589;28;20012;-74
2022/08/20 02:40:34;;;;;;;6.03;2.08;;;18.20;99.90;;;;;;5075449;28;20444;-74
2022/08/20 02:43:01;;;;;;;6.95;3.35;;;18.10;99.90;;;;;;5074896;28;20056;-76
2022/08/20 02:45:29;;;;;;;6.90;3.17;;;18.10;99.90;;;;;;5075549;28;20067;-77
2022/08/20 02:47:55;;;;;;;7.78;3.05;;;18.10;99.90;;;;;;5075347;28;20008;-75
2022/08/20 02:50:22;;;;;;;6.72;2.47;;;18.00;99.90;;;;;;5075157;28;20033;-76
2022/08/20 02:52:50;;;;;;;4.57;3.20;;;18.10;99.90;;;;;;5074687;28;20021;-75
2022/08/20 02:55:15;;;;;;;12.48;2.97;;;18.00;99.90;;;;;;5074577;28;20032;-74
2022/08/20 02:57:42;;;;;;;8.30;2.92;;;18.00;99.90;;;;;;5075204;28;20429;-74
2022/08/20 03:00:15;;;;;;;3.72;2.28;;;18.00;99.90;;;;;;5075359;28;20074;-75
2022/08/20 03:02:40;;;;;;;7.20;3.17;;;18.00;99.90;;;;;;5074881;28;20025;-75
2022/08/20 03:05:07;;;;;;;6.72;3.35;;;18.00;99.90;;;;;;5075050;28;20039;-76
2022/08/20 03:07:52;;;;;;;6.13;2.55;;;18.00;99.90;;;;;;5075191;28;20465;-75
2022/08/20 03:10:25;;;;;;;5.72;2.85;;;18.00;99.90;;;;;;5074923;28;20103;-74
2022/08/20 03:12:51;;;;;;;5.47;2.70;;;18.00;99.90;;;;;;5075073;28;20380;-74
2022/08/20 03:15:17;;;;;;;6.82;2.75;;;18.00;99.90;;;;;;5075069;28;20020;-74
2022/08/20 03:17:44;;;;;;;4.20;2.53;;;18.00;99.90;;;;;;5074949;28;20375;-74
2022/08/20 03:20:10;;;;;;;4.85;2.53;;;18.00;99.90;;;;;;5075145;28;20111;-74
2022/08/20 03:22:36;;;;;;;6.10;2.50;;;18.00;99.90;;;;;;5075113;28;20028;-74
2022/08/20 03:25:03;;;;;;;5.32;2.88;;;18.10;99.90;;;;;;5074879;28;20147;-75
2022/08/20 03:27:28;;;;;;;8.63;2.97;;;18.00;99.90;;;;;;5074378;28;20047;-75
2022/08/20 03:29:54;;;;;;;9.30;3.75;;;18.00;99.90;;;;;;5074819;28;20372;-75
2022/08/20 03:32:19;;;;;;;7.70;2.88;;;18.00;99.90;;;;;;5074402;28;20035;-74
2022/08/20 03:34:45;;;;;;;7.85;2.85;;;18.10;99.90;;;;;;5074464;28;20028;-75
2022/08/20 03:37:11;;;;;;;9.27;2.92;;;18.10;99.90;;;;;;5072919;28;20032;-75
2022/08/20 03:39:38;;;;;;;5.20;2.78;;;18.10;99.90;;;;;;5073367;28;20380;-74
2022/08/20 03:42:04;;;;;;;6.30;2.22;;;18.00;99.90;;;;;;5073370;28;20089;-76
2022/08/20 03:44:30;;;;;;;7.53;2.78;;;18.00;99.90;;;;;;5074527;28;20035;-77
2022/08/20 03:46:56;;;;;;;7.22;2.42;;;18.10;99.90;;;;;;5074490;28;20020;-77
2022/08/20 03:49:23;;;;;;;4.05;2.92;;;18.00;99.90;;;;;;5074757;28;20375;-75
2022/08/20 03:51:49;;;;;;;11.55;3.30;;;18.10;99.90;;;;;;5074224;28;20472;-76
2022/08/20 03:54:15;;;;;;;4.85;2.88;;;18.10;99.90;;;;;;5074281;28;20020;-74
2022/08/20 03:56:40;;;;;;;10.50;3.30;;;18.10;99.90;;;;;;5074009;28;20024;-74
2022/08/20 03:59:07;;;;;;;4.65;2.70;;;18.10;99.90;;;;;;5073838;28;20460;-74
2022/08/20 04:01:32;;;;;;;11.18;3.28;;;18.10;99.90;;;;;;5074156;28;20020;-74
2022/08/20 04:03:58;;;;;;;5.68;2.78;;;18.10;99.90;;;;;;5074216;28;20020;-75
2022/08/20 04:06:25;;;;;;;7.63;2.70;;;18.10;99.90;;;;;;5073687;28;20387;-78
2022/08/20 04:08:52;;;;;;;4.47;2.35;;;18.10;99.90;;;;;;5073873;28;20029;-77
2022/08/20 04:11:18;;;;;;;4.32;2.30;;;18.10;99.90;;;;;;5073610;28;20064;-76
2022/08/20 04:13:44;;;;;;;9.95;2.42;;;18.10;99.90;;;;;;5073462;28;20059;-74
2022/08/20 04:16:10;;;;;;;3.40;1.52;;;18.20;99.90;;;;;;5073588;28;20075;-77
2022/08/20 04:18:35;;;;;;;6.30;2.78;;;18.40;99.90;;;;;;5072925;28;20395;-78
2022/08/20 04:21:03;;;;;;;5.00;2.03;;;19.20;99.90;;;;;;5074124;28;20060;-79
2022/08/20 04:23:30;;;;;;;11.35;3.40;;;19.80;99.90;;;;;;5073305;28;20450;-79
2022/08/20 04:25:56;;;;;;;9.57;2.97;;;20.30;99.90;;;;;;5073240;28;20025;-79
2022/08/20 04:28:26;;;;;;;6.25;2.38;;;20.60;99.90;;;;;;5073944;28;20104;-76
2022/08/20 04:30:57;;;;;;;4.38;2.65;;;20.80;99.90;;;;;;5073855;28;20032;-76
2022/08/20 04:33:25;;;;;;;3.53;2.65;;;20.90;99.90;;;;;;5073877;28;20104;-78
2022/08/20 04:35:52;;;;;;;3.90;2.72;;;20.70;99.90;;;;;;5072533;28;20027;-78
2022/08/20 04:38:20;;;;;;;3.30;2.17;;;20.50;99.90;;;;;;5073653;28;20056;-78
2022/08/20 04:40:57;;;;;;;6.80;2.08;;;20.30;99.90;;;;;;5072554;28;20021;-77
2022/08/20 04:43:37;;;;;;;4.68;2.20;;;20.30;99.90;;;;;;5072929;28;20360;-76
2022/08/20 04:46:10;;;;;;;7.40;3.20;;;20.40;99.90;;;;;;5071942;28;20419;-79
2022/08/20 04:48:39;;;;;;;6.80;2.20;;;20.40;99.90;;;;;;5073456;28;20380;-78
2022/08/20 04:51:07;;;;;;;7.00;2.20;;;20.30;99.90;;;;;;5073056;28;20119;-76
2022/08/20 04:53:33;;;;;;;12.63;2.55;;;20.20;99.90;;;;;;5072462;28;20021;-79
2022/08/20 04:56:01;;;;;;;4.18;1.90;;;20.00;99.90;;;;;;5073487;28;20055;-79
2022/08/20 04:58:30;;;;;;;5.85;2.03;;;19.90;99.90;;;;;;5071076;28;20493;-78
2022/08/20 05:00:58;;;;;;;5.53;2.97;;;20.00;99.90;;;;;;5072685;28;20024;-78
2022/08/20 05:03:25;;;;;;;4.57;1.95;;;20.10;99.90;;;;;;5073456;28;20020;-77
2022/08/20 05:05:51;;;;;;;11.00;3.25;;;20.10;99.90;;;;;;5071656;28;20438;-79
2022/08/20 05:08:19;;;;;;;3.63;1.67;;;20.20;99.90;;;;;;5071531;28;20056;-78
2022/08/20 05:10:46;;;;;;;7.38;2.28;;;20.10;99.90;;;;;;5072383;28;20034;-78
2022/08/20 05:13:11;;;;;;;6.15;1.85;;;20.10;99.90;;;;;;5071237;28;20059;-78
2022/08/20 05:15:38;;;;;;;4.63;2.15;;;20.10;99.90;;;;;;5071934;28;20032;-79
2022/08/20 05:18:06;;;;;;;4.20;2.30;;;20.40;99.90;;;;;;5070039;28;20506;-80
2022/08/20 05:20:38;;;;;;;10.25;2.15;;;20.40;99.90;;;;;;5073141;28;20032;-78
2022/08/20 05:23:05;;;;;;;8.60;3.03;;;20.50;99.90;;;;;;5073157;28;20049;-78
2022/08/20 05:25:32;;;;;;;6.85;2.55;;;20.30;99.90;;;;;;5071703;28;20490;-78
2022/08/20 05:28:06;;;;;;;5.13;2.17;;;20.30;99.90;;;;;;5072983;28;20013;-79
2022/08/20 05:30:32;;;;;;;6.03;2.40;;;20.20;99.90;;;;;;5071804;28;20033;-79
2022/08/20 05:33:03;;;;;;;5.25;2.22;;;20.50;99.90;;;;;;5072864;28;20456;-78
2022/08/20 05:35:30;;;;;;;7.13;2.00;;;20.70;99.90;;;;;;5073121;28;20456;-76
2022/08/20 05:37:56;;;;;;;2.42;1.88;;;20.70;99.90;;;;;;5072517;28;20107;-78
2022/08/20 05:40:23;;;;;;;8.63;2.20;;;20.70;99.90;;;;;;5071605;28;20093;-79
2022/08/20 05:42:50;;;;;;;9.75;2.42;;;20.60;99.90;;;;;;5071515;28;20796;-77
2022/08/20 05:45:16;;;;;;;6.25;1.92;;;20.70;99.90;;;;;;5072276;28;20021;-76
2022/08/20 05:47:43;;;;;;;6.82;2.30;;;20.80;99.90;;;;;;5072476;28;20005;-76
2022/08/20 05:50:11;;;;;;;7.00;3.13;;;20.80;99.90;;;;;;5072986;28;20028;-76
2022/08/20 05:52:37;;;;;;;6.95;2.03;;;20.50;99.90;;;;;;5072900;28;20475;-77
2022/08/20 05:55:05;;;;;;;8.13;2.13;;;20.70;99.90;;;;;;5073030;28;20464;-76
2022/08/20 05:57:31;;;;;;;10.15;3.67;;;20.90;99.90;;;;;;5073122;28;20101;-76
2022/08/20 06:00:01;;;;;;;3.83;2.42;;;21.10;99.90;;;;;;5071034;28;20021;-77
2022/08/20 06:05:12;;;;;;;4.70;2.63;;;21.30;99.90;;;;;;5072573;28;20035;-75
2022/08/20 06:07:38;;;;;;;6.88;3.90;;;21.20;99.90;;;;;;5072236;28;20028;-77
2022/08/20 06:10:05;;;;;;;4.60;2.20;;;21.20;99.90;;;;;;5072735;28;20059;-77
2022/08/20 06:12:31;;;;;;;6.55;2.25;;;21.10;99.90;;;;;;5072863;28;20024;-77
2022/08/20 06:14:57;;;;;;;3.55;2.13;;;21.10;99.90;;;;;;5072849;28;20035;-78
2022/08/20 06:17:23;;;;;;;6.65;2.70;;;21.10;99.90;;;;;;5072887;28;20009;-76
2022/08/20 06:19:48;;;;;;;5.88;2.78;;;21.20;99.90;;;;;;5072268;28;20024;-76
2022/08/20 06:22:15;;;;;;;8.40;2.97;;;21.20;99.90;;;;;;5072303;28;20103;-76
2022/08/20 06:24:41;;;;;;;7.70;3.08;;;21.30;99.90;;;;;;5072593;28;20467;-77
2022/08/20 06:27:07;;;;;;;10.32;4.55;;;21.30;99.90;;;;;;5072880;28;20064;-76
2022/08/20 06:29:34;;;;;;;7.05;2.60;;;21.30;99.90;;;;;;5075820;28;20426;-77
2022/08/20 06:32:03;;;;;;;6.78;3.08;;;21.30;99.90;;;;;;5076377;28;20024;-76
2022/08/20 06:34:28;;;;;;;5.70;3.00;;;21.40;99.90;;;;;;5075990;28;20500;-77
2022/08/20 06:36:56;;;;;;;6.50;3.50;;;21.40;99.90;;;;;;5076221;28;20058;-76
2022/08/20 06:39:22;;;;;;;5.45;3.05;;;21.40;99.90;;;;;;5076440;28;20021;-78
2022/08/20 06:41:50;;;;;;;6.50;2.70;;;21.50;99.90;;;;;;5075862;28;20004;-77
2022/08/20 06:44:16;;;;;;;5.60;2.45;;;21.50;99.90;;;;;;5076066;28;20021;-77
2022/08/20 06:46:43;;;;;;;10.05;2.92;;;21.60;99.90;;;;;;5074596;28;20048;-77
2022/08/20 06:49:08;;;;;;;3.60;2.35;;;21.60;99.90;;;;;;5073323;28;20025;-78
2022/08/20 06:51:36;;;;;;;5.63;2.63;;;21.60;99.90;;;;;;5075769;28;20029;-80
2022/08/20 06:54:02;;;;;;;6.85;4.20;;;21.60;99.90;;;;;;5074262;28;20051;-80
2022/08/20 06:56:28;;;;;;;7.22;4.25;;;21.50;99.90;;;;;;5075523;28;20035;-80
2022/08/20 06:58:54;;;;;;;5.38;3.03;;;21.60;99.90;;;;;;5075727;28;20028;-80
2022/08/20 07:01:20;;;;;;;7.28;2.90;;;21.60;99.90;;;;;;5075492;28;20464;-79
2022/08/20 07:03:47;;;;;;;13.80;3.25;;;21.70;99.90;;;;;;5074179;28;20047;-79
2022/08/20 07:06:14;;;;;;;5.10;2.92;;;21.70;99.90;;;;;;5073185;28;20078;-79
2022/08/20 07:08:41;;;;;;;8.23;3.33;;;21.80;99.90;;;;;;5074284;28;20021;-77
2022/08/20 07:11:07;;;;;;;6.38;3.10;;;21.80;99.90;;;;;;5075615;28;20380;-74
2022/08/20 07:13:36;;;;;;;13.05;3.42;;;21.90;99.90;;;;;;5075438;28;20052;-76
2022/08/20 07:16:05;;;;;;;11.82;2.58;;;22.00;99.90;;;;;;5075391;28;20013;-75
2022/08/20 07:18:31;;;;;;;3.38;2.55;;;22.00;99.90;;;;;;5075141;28;20099;-77
2022/08/20 07:20:57;;;;;;;6.13;3.33;;;22.10;99.90;;;;;;5084836;28;20075;-79
2022/08/20 07:23:24;;;;;;;4.22;2.85;;;22.20;99.90;;;;;;5095438;28;20031;-77
2022/08/20 07:25:50;;;;;;;3.35;2.67;;;22.30;99.90;;;;;;5095404;28;20043;-77
2022/08/20 07:28:18;;;;;;;6.22;2.55;;;22.30;99.90;;;;;;5094978;28;20020;-79
2022/08/20 07:33:30;;;;;;;7.47;3.03;;;22.30;99.90;;;;;;5095538;28;20031;-74
2022/08/20 07:35:57;;;;;;;3.75;2.65;;;22.30;99.90;;;;;;5095396;28;20032;-75
2022/08/20 07:38:25;;;;;;;4.82;2.55;;;22.40;99.90;;;;;;5094371;28;20032;-74
2022/08/20 07:40:57;;;;;;;8.57;2.47;;;22.50;99.90;;;;;;5094625;28;20023;-75
2022/08/20 07:43:23;;;;;;;8.38;2.58;;;22.50;99.90;;;;;;5094957;28;20030;-75
2022/08/20 07:45:59;;;;;;;4.07;2.33;;;22.50;99.90;;;;;;5094161;28;20081;-76
2022/08/20 07:48:27;;;;;;;5.43;2.45;;;22.50;99.90;;;;;;5094305;28;20020;-78
2022/08/20 07:50:55;;;;;;;11.35;3.60;;;22.50;99.90;;;;;;5076817;28;20028;-78
2022/08/20 07:53:21;;;;;;;7.47;2.65;;;22.60;99.90;;;;;;5094032;28;20032;-78
2022/08/20 07:55:47;;;;;;;9.68;3.22;;;22.60;99.90;;;;;;5093599;28;20020;-77
2022/08/20 07:58:16;;;;;;;4.65;2.20;;;22.70;99.90;;;;;;5094421;28;20060;-76
2022/08/20 08:00:42;;;;;;;3.70;2.25;;;22.70;99.90;;;;;;5094897;28;20460;-74
2022/08/20 08:03:09;;;;;;;9.20;2.40;;;22.70;99.90;;;;;;5094247;28;20015;-75
2022/08/20 08:05:37;;;;;;;8.00;3.35;;;22.70;99.90;;;;;;5094486;28;20377;-78
2022/08/20 08:08:09;;;;;;;10.88;3.60;;;22.80;99.90;;;;;;5076088;28;20381;-77
2022/08/20 08:10:36;;;;;;;10.02;2.55;;;22.80;99.90;;;;;;5093835;28;20036;-77
2022/08/20 08:13:05;;;;;;;3.15;2.10;;;22.70;99.90;;;;;;5094196;28;20064;-74
2022/08/20 08:15:33;;;;;;;10.82;3.05;;;22.80;99.90;;;;;;5094283;28;20040;-79
2022/08/20 08:18:10;;;;;;;3.88;2.88;;;22.80;99.90;;;;;;5093960;28;20028;-75
2022/08/20 08:20:39;;;;;;;6.30;2.40;;;22.90;99.90;;;;;;5093818;28;20040;-78
2022/08/20 08:23:06;;;;;;;6.93;3.22;;;23.00;99.90;;;;;;5093406;28;20096;-78
2022/08/20 08:25:32;;;;;;;5.43;2.88;;;23.20;99.90;;;;;;5093905;28;20016;-78
2022/08/20 08:27:59;;;;;;;5.90;3.13;;;23.30;99.90;;;;;;5093696;28;20360;-77
2022/08/20 08:30:27;;;;;;;6.03;2.63;;;23.40;99.90;;;;;;5093380;28;20056;-77
2022/08/20 08:35:38;;;;;;;6.22;3.30;;;23.50;99.90;;;;;;5093600;28;20043;-79
2022/08/20 08:38:04;;;;;;;8.48;3.05;;;23.60;99.90;;;;;;5093351;28;20079;-79
2022/08/20 08:40:32;;;;;;;7.03;3.15;;;23.60;99.90;;;;;;5093339;28;20096;-79
2022/08/20 08:43:01;;;;;;;6.65;2.70;;;23.70;99.90;;;;;;5093334;28;20016;-79
2022/08/20 08:45:37;;;;;;;4.43;2.55;;;23.70;99.90;;;;;;5093419;28;20459;-77
2022/08/20 08:48:03;;;;;;;5.57;2.65;;;23.70;99.90;;;;;;5075224;28;20448;-80
2022/08/20 08:50:32;;;;;;;6.93;2.58;;;23.80;99.90;;;;;;5093231;28;20032;-78
2022/08/20 08:53:01;;;;;;;8.77;2.95;;;23.90;99.90;;;;;;5092694;28;20062;-76
2022/08/20 08:55:29;;;;;;;6.22;2.67;;;23.90;99.90;;;;;;5093351;28;20103;-77
2022/08/20 08:57:59;;;;;;;4.75;3.20;;;24.00;99.90;;;;;;5093221;28;20027;-77
2022/08/20 09:00:27;;;;;;;6.43;2.72;;;24.00;99.90;;;;;;5075191;28;20101;-77
2022/08/20 09:03:32;;;;;;;4.53;2.35;;;24.00;99.90;;;;;;5075008;28;20682;-77
2022/08/20 09:06:04;;;;;;;5.35;2.40;;;24.00;99.90;;;;;;5088507;28;20038;-79
2022/08/20 09:08:40;;;;;;;6.07;2.85;;;24.10;99.90;;;;;;5092682;28;20561;-78
2022/08/20 09:11:07;;;;;;;4.53;1.85;;;24.20;99.90;;;;;;5074662;28;20456;-77
2022/08/20 09:13:33;;;;;;;3.03;2.03;;;24.30;99.90;;;;;;5092788;28;20081;-77
2022/08/20 09:15:59;;;;;;;7.13;2.38;;;24.40;99.90;;;;;;5093339;28;20069;-75
2022/08/20 09:18:25;;;;;;;3.92;2.22;;;24.50;99.90;;;;;;5093001;28;20031;-76
2022/08/20 09:20:51;;;;;;;5.85;2.60;;;24.70;99.90;;;;;;5092990;28;20176;-76
2022/08/20 09:23:16;;;;;;;4.82;2.60;;;24.80;99.90;;;;;;5092921;28;20020;-77
2022/08/20 09:25:42;;;;;;;14.50;3.17;;;24.80;99.90;;;;;;5092981;28;20055;-76
2022/08/20 09:28:08;;;;;;;4.22;2.15;;;25.00;99.90;;;;;;5093104;28;20049;-77
2022/08/20 09:30:34;;;;;;;5.15;3.72;;;24.80;99.90;;;;;;5092916;28;20047;-78
2022/08/20 09:32:59;;;;;;;6.50;2.70;;;24.70;99.90;;;;;;5092997;28;20028;-76
2022/08/20 09:35:26;;;;;;;5.05;2.35;;;24.70;99.90;;;;;;5092859;28;20024;-76
2022/08/20 09:37:52;;;;;;;7.28;2.70;;;24.60;99.90;;;;;;5092871;28;20020;-76
2022/08/20 09:40:18;;;;;;;6.82;2.80;;;24.60;99.90;;;;;;5092818;28;20028;-77
2022/08/20 09:42:45;;;;;;;8.93;3.00;;;24.50;99.90;;;;;;5092328;28;20337;-76
2022/08/20 09:45:12;;;;;;;9.75;2.90;;;24.60;99.90;;;;;;5074749;28;20459;-78
2022/08/20 09:47:39;;;;;;;2.72;2.03;;;24.70;99.90;;;;;;5092683;28;20013;-76
2022/08/20 09:50:05;;;;;;;3.28;2.13;;;24.70;99.90;;;;;;5092726;28;20033;-78
2022/08/20 09:52:35;;;;;;;6.55;2.15;;;24.60;99.90;;;;;;5092844;28;20024;-77
2022/08/20 09:55:06;;;;;;;2.40;2.20;;;24.70;99.90;;;;;;5092716;28;20031;-77
2022/08/20 09:57:33;;;;;;;7.97;2.05;;;24.70;99.90;;;;;;5092428;28;20031;-75
2022/08/20 10:00:03;;;;;;;7.43;2.45;;;24.80;99.90;;;;;;5092660;28;20085;-76
2022/08/20 10:02:29;;;;;;;5.63;2.33;;;25.00;99.90;;;;;;5093091;28;20034;-76
2022/08/20 10:04:55;;;;;;;2.63;2.17;;;25.10;99.90;;;;;;5097025;28;20020;-76
2022/08/20 10:07:21;;;;;;;3.00;2.03;;;25.10;99.90;;;;;;5096591;28;20032;-76
2022/08/20 10:09:46;;;;;;;4.07;2.13;;;25.20;99.90;;;;;;5096729;28;20028;-77
2022/08/20 10:12:12;;;;;;;7.00;3.17;;;25.30;99.90;;;;;;5096403;28;20053;-73
2022/08/20 10:14:38;;;;;;;3.97;2.03;;;25.40;99.90;;;;;;5096676;28;20021;-76
2022/08/20 10:17:03;;;;;;;5.18;2.17;;;25.50;99.60;;;;;;5096514;28;20036;-78
2022/08/20 10:19:30;;;;;;;1.88;1.77;;;25.60;99.40;;;;;;5096495;28;20020;-76
2022/08/20 10:21:56;;;;;;;4.22;2.42;;;25.70;99.30;;;;;;5096158;28;20050;-76
2022/08/20 10:24:22;;;;;;;3.70;1.98;;;25.90;98.10;;;;;;5096277;28;20021;-76
2022/08/20 10:26:49;;;;;;;4.18;3.22;;;26.10;96.30;;;;;;5077563;28;21685;-75
2022/08/20 10:29:15;;;;;;;4.93;2.00;;;26.00;95.70;;;;;;5077691;28;20031;-78
2022/08/20 10:31:41;;;;;;;4.60;1.50;;;26.10;95.80;;;;;;5096059;28;20043;-76
2022/08/20 10:34:07;;;;;;;2.67;1.58;;;26.30;96.30;;;;;;5096253;28;20027;-78
2022/08/20 10:36:33;;;;;;;2.55;1.73;;;26.30;94.80;;;;;;5096103;28;20028;-76
2022/08/20 10:38:58;;;;;;;5.63;2.00;;;26.50;94.70;;;;;;5077836;28;20107;-76
2022/08/20 10:41:24;;;;;;;7.70;1.98;;;26.60;96.50;;;;;;5096097;28;20127;-77
2022/08/20 10:43:50;;;;;;;2.42;1.58;;;26.80;94.40;;;;;;5095123;28;20028;-74
2022/08/20 10:46:16;;;;;;;3.33;1.60;;;26.90;96.60;;;;;;5094632;28;20474;-76
2022/08/20 10:48:42;;;;;;;4.88;1.33;;;27.10;92.50;;;;;;5095228;28;20095;-76
2022/08/20 10:51:07;;;;;;;6.30;1.52;;;27.20;92.80;;;;;;5078191;28;20467;-79
2022/08/20 10:53:33;;;;;;;1.92;1.40;;;27.40;92.00;;;;;;5095932;28;20055;-78
2022/08/20 10:55:59;;;;;;;2.60;1.45;;;27.40;90.00;;;;;;5095603;28;20032;-78
2022/08/20 10:58:26;;;;;;;4.15;1.75;;;27.50;90.10;;;;;;5095579;28;20117;-77
2022/08/20 11:00:52;;;;;;;4.25;1.67;;;27.30;89.60;;;;;;5095293;28;20024;-78
2022/08/20 11:03:18;;;;;;;1.20;1.10;;;26.90;90.30;;;;;;5095517;28;20099;-79
2022/08/20 11:05:44;;;;;;;2.60;1.13;;;26.90;90.70;;;;;;5095406;28;20016;-79
2022/08/20 11:08:10;;;;;;;1.90;1.48;;;26.90;91.00;;;;;;5094276;28;20115;-79
2022/08/20 11:10:37;;;;;;;2.15;1.75;;;27.10;91.00;;;;;;5095340;28;20115;-77
2022/08/20 11:13:04;;;;;;;2.05;1.25;;;27.20;90.30;;;;;;5095346;28;20439;-74
2022/08/20 11:15:32;;;;;;;2.42;1.63;;;27.20;89.40;;;;;;5094194;28;20022;-76
2022/08/20 11:17:58;;;;;;;2.28;1.30;;;27.20;90.60;;;;;;5095279;28;20415;-77
2022/08/20 11:20:25;;;;;;;1.25;1.13;;;27.40;90.50;;;;;;5077063;28;20472;-78
2022/08/20 11:22:51;;;;;;;6.38;1.95;;;27.50;89.70;;;;;;5095468;28;20028;-80
2022/08/20 11:25:18;;;;;;;4.13;1.70;;;27.50;90.10;;;;;;5094873;28;20024;-80
2022/08/20 11:27:47;;;;;;;1.48;1.10;;;27.70;93.30;;;;;;5094935;28;20381;-79
2022/08/20 11:30:18;;;;;;;1.25;1.13;;;27.90;87.60;;;;;;5095025;28;20123;-81
2022/08/20 11:32:44;;;;;;;1.85;1.30;;;28.00;84.50;;;;;;5094967;28;20126;-79
2022/08/20 11:35:10;;;;;;;2.95;1.20;;;28.20;86.00;;;;;;5095133;28;20063;-76
2022/08/20 11:37:36;;;;;;;3.88;1.80;;;28.40;85.70;;;;;;5094688;28;20020;-78
2022/08/20 11:40:02;;;;;;;3.55;1.35;;;28.00;83.50;;;;;;5094781;28;20580;-78
2022/08/20 11:42:28;;;;;;;4.22;1.20;;;28.00;84.70;;;;;;5094890;28;20028;-77
2022/08/20 11:44:53;;;;;;;3.33;1.60;;;28.10;85.80;;;;;;5076455;28;20512;-79
2022/08/20 11:47:23;;;;;;;2.78;1.10;;;28.20;85.30;;;;;;5094590;28;20078;-77
2022/08/20 11:50:00;;;;;;;2.55;1.27;;;28.30;83.70;;;;;;5076197;28;20384;-78
2022/08/20 11:52:27;;;;;;;4.32;1.63;;;28.20;84.30;;;;;;5094223;28;20027;-77
2022/08/20 11:54:52;;;;;;;1.60;1.38;;;28.20;84.00;;;;;;5093898;28;20027;-76
2022/08/20 11:57:24;;;;;;;3.83;1.45;;;28.30;84.50;;;;;;5093707;28;20036;-77
2022/08/20 11:59:51;;;;;;;2.38;1.13;;;28.50;83.00;;;;;;5076358;28;20464;-76
2022/08/20 12:02:17;;;;;;;1.85;0.95;;;28.50;82.10;;;;;;5076131;28;20051;-80
2022/08/20 12:04:43;;;;;;;1.40;0.95;;;28.40;77.70;;;;;;5094300;28;20059;-77
2022/08/20 12:07:10;;;;;;;3.22;1.05;;;28.20;76.50;;;;;;5094153;28;20132;-79
2022/08/20 12:09:36;;;;;;;5.75;1.40;;;28.10;79.70;;;;;;5094378;28;20043;-77
2022/08/20 12:12:02;;;;;;;6.05;1.83;;;27.90;81.80;;;;;;5094340;28;20475;-79
2022/08/20 12:14:28;;;;;;;8.35;0.80;;;27.80;82.60;;;;;;5094445;28;20024;-76
2022/08/20 12:16:53;;;;;;;1.48;0.43;;;27.50;77.90;;;;;;5075957;28;20031;-77
2022/08/20 12:19:19;;;;;;;1.65;0.30;;;26.70;77.30;;;;;;5094200;28;20039;-79
2022/08/20 12:21:45;;;;;;;0.35;0.35;;;26.20;80.10;;;;;;5093743;28;20055;-77
2022/08/20 12:24:10;;;;;;;2.55;0.45;;;25.60;83.10;;;;;;5093759;28;20050;-78
2022/08/20 12:26:36;;;;;;;1.38;0.50;;;25.30;84.30;;;;;;5093606;28;20123;-77
2022/08/20 12:29:02;;;;;;;0.57;0.30;;;;;;;;;;5093447;28;20028;-77
2022/08/20 12:31:28;;;;;;;0.30;0.30;;;24.00;90.40;;;;;;5093494;28;20032;-79
2022/08/20 12:33:53;;;;;;;4.15;0.32;;;23.40;92.40;;;;;;5093617;28;20028;-80
2022/08/20 12:36:19;;;;;;;0.25;0.25;;;23.20;93.40;;;;;;5075266;28;20039;-76
2022/08/20 12:38:45;;;;;;;1.25;0.38;;;23.10;94.10;;;;;;5093379;28;20023;-75
2022/08/20 12:41:10;;;;;;;1.27;0.52;;;22.90;94.70;;;;;;5093409;28;20024;-78
2022/08/20 12:43:36;;;;;;;4.40;1.40;;;22.70;96.80;;;;;;5093472;28;20078;-76
2022/08/20 12:46:02;;;;;;;3.00;0.60;;;22.00;99.90;;;;;;5093422;28;20502;-77
2022/08/20 12:48:28;;;;;;;4.00;1.05;;;;;;;;;;5093480;28;20047;-77
2022/08/20 12:50:53;;;;;;;1.92;0.85;;;21.40;99.90;;;;;;5093278;28;20039;-76
2022/08/20 12:53:19;;;;;;;7.18;0.90;;;20.70;99.90;;;;;;5093094;28;20024;-74
2022/08/20 12:55:45;;;;;;;0.75;0.43;;;20.20;99.90;;;;;;5092703;28;20103;-74
2022/08/20 12:58:11;;;;;;;2.65;0.75;;;19.90;99.90;;;;;;5092587;28;20479;-75